Delta Virtual Airport Information Service

Ankara Esenboga International Airport

ICAO: LTAC Country: Turkey
Latitude: 40.1281 Longitude: 32.9951
Latest Arrival : DAC678 (KDFW-LTAC) Latest Departure : DAC234 (LTAC-MROC)


WX CaptureLIVE
Data provided by noaa.gov | Fetched at 10:38:55

METAR : LTAC 231550Z 00000KT CAVOK 04/M05 Q1026 NOSIG

TAF : LTAC 231040Z 2312/2412 VRB02KT 9999 FEW040 BECMG 2315/2317 CAVOK BECMG 2404/2406 SCT040= LTAI 231040Z 2312/2412 VRB02KT CAVOK BECMG 2404/2408 FEW030


Runway Data for LTAC
Data provided by openaviationdata.com

Runway ID Mag Var Hdg Length Elevation Surface ILS Freq ILS Id ILS Slope
03L 3 32° 12271 ft 3124 ft Concrete 108.9 IAKR 3
03R 3 32° 12271 ft 3124 ft Tarmac 110.3 IANK 3
21L 3 212° 12271 ft 3124 ft Tarmac 108.1 IESB 3
21R 3 212° 12271 ft 3124 ft Concrete 108.3 IEBG 3

Ankara Esenboga International Airport, Turkey
Use only for reference purposes



Not for navigational purposes.